createdAt,value
2018-08-31T00:01:52.608Z,99.90
2018-08-31T00:08:40.838Z,99.90
2018-08-31T00:14:45.459Z,99.90
2018-08-31T00:20:50.099Z,99.90
2018-08-31T00:27:11.705Z,99.90
2018-08-31T00:33:35.026Z,99.90
2018-08-31T00:42:04.347Z,99.90
2018-08-31T00:48:10.702Z,99.90
2018-08-31T00:54:15.350Z,99.90
2018-08-31T01:00:20.369Z,99.90
2018-08-31T01:06:24.963Z,99.90
2018-08-31T01:12:29.649Z,99.90
2018-08-31T01:21:06.317Z,99.90
2018-08-31T01:27:11.701Z,99.90
2018-08-31T01:33:16.616Z,99.90
2018-08-31T01:39:21.433Z,99.90
2018-08-31T01:45:26.299Z,99.90
2018-08-31T01:51:31.141Z,99.90
2018-08-31T01:57:35.823Z,99.90
2018-08-31T02:03:41.340Z,99.90
2018-08-31T02:09:46.638Z,99.90
2018-08-31T02:15:51.453Z,99.90
2018-08-31T02:21:56.472Z,99.90
2018-08-31T02:28:01.151Z,99.90
2018-08-31T02:34:06.132Z,99.90
2018-08-31T02:40:11.380Z,99.90
2018-08-31T02:46:16.825Z,99.90
2018-08-31T02:52:21.505Z,99.90
2018-08-31T02:58:26.270Z,99.90
2018-08-31T03:04:31.057Z,99.90
2018-08-31T03:10:35.826Z,99.90
2018-08-31T03:19:14.205Z,99.90
2018-08-31T03:25:19.113Z,99.90
2018-08-31T03:31:23.957Z,99.90
2018-08-31T03:37:28.783Z,99.90
2018-08-31T03:43:33.570Z,99.90
2018-08-31T03:49:38.336Z,99.90
2018-08-31T03:55:43.682Z,99.90
2018-08-31T04:01:48.669Z,99.90
2018-08-31T04:07:53.741Z,99.90
2018-08-31T04:13:58.697Z,99.90
2018-08-31T04:20:03.420Z,99.90
2018-08-31T04:26:08.172Z,99.90
2018-08-31T04:32:14.240Z,99.90
2018-08-31T04:38:19.001Z,99.90
2018-08-31T04:44:23.861Z,99.90
2018-08-31T04:50:28.812Z,99.90
2018-08-31T04:56:33.540Z,99.90
2018-08-31T05:02:38.300Z,99.90
2018-08-31T05:08:43.387Z,99.90
2018-08-31T05:14:48.330Z,99.90
2018-08-31T05:20:53.077Z,99.90
2018-08-31T05:26:57.938Z,99.90
2018-08-31T05:33:02.700Z,99.90
2018-08-31T05:39:11.447Z,99.90
2018-08-31T05:45:16.766Z,99.90
2018-08-31T05:51:21.456Z,99.90
2018-08-31T05:57:26.340Z,99.90
2018-08-31T06:03:31.104Z,99.90
2018-08-31T06:09:36.143Z,99.90
2018-08-31T06:15:41.022Z,99.90
2018-08-31T06:21:46.223Z,99.90
2018-08-31T06:27:51.462Z,99.90
2018-08-31T06:33:56.347Z,99.90
2018-08-31T06:40:01.093Z,99.90
2018-08-31T06:46:06.056Z,99.90
2018-08-31T06:52:12.535Z,99.90
2018-08-31T06:58:17.390Z,99.90
2018-08-31T07:04:22.179Z,99.90
2018-08-31T07:10:26.879Z,99.90
2018-08-31T07:16:31.761Z,99.90
2018-08-31T07:22:36.570Z,99.90
2018-08-31T07:28:41.824Z,99.90
2018-08-31T07:34:46.662Z,99.90
2018-08-31T07:40:51.428Z,99.90
2018-08-31T07:46:56.374Z,99.90
2018-08-31T07:53:01.791Z,99.90
2018-08-31T07:59:06.825Z,99.90
2018-08-31T08:05:11.949Z,99.90
2018-08-31T08:11:16.781Z,99.90
2018-08-31T08:17:22.146Z,99.90
2018-08-31T08:23:27.115Z,99.90
2018-08-31T08:29:32.242Z,99.90
2018-08-31T08:35:37.289Z,99.90
2018-08-31T08:41:42.429Z,99.90
2018-08-31T08:47:47.424Z,99.90
2018-08-31T08:53:52.081Z,99.90
2018-08-31T08:59:56.914Z,99.90
2018-08-31T09:06:01.614Z,99.90
2018-08-31T09:12:06.639Z,99.90
2018-08-31T09:18:13.207Z,99.90
2018-08-31T09:24:18.156Z,99.90
2018-08-31T09:30:28.249Z,99.90
2018-08-31T09:36:33.354Z,99.90
2018-08-31T09:42:38.298Z,99.90
2018-08-31T09:48:43.570Z,99.90
2018-08-31T09:54:48.364Z,99.90
2018-08-31T10:00:55.447Z,99.90
2018-08-31T10:07:00.433Z,99.00
2018-08-31T10:13:05.217Z,96.70
2018-08-31T10:19:11.364Z,91.00
2018-08-31T10:25:16.551Z,87.10
2018-08-31T10:31:21.248Z,91.20
2018-08-31T10:37:26.232Z,93.40
2018-08-31T10:43:31.149Z,96.70
2018-08-31T10:49:35.900Z,99.90
2018-08-31T10:55:41.524Z,99.90
2018-08-31T11:01:46.630Z,99.90
2018-08-31T11:07:51.560Z,99.90
2018-08-31T11:13:56.357Z,99.90
2018-08-31T11:20:01.453Z,99.90
2018-08-31T11:26:06.292Z,99.90
2018-08-31T11:32:12.184Z,99.90
2018-08-31T11:38:17.929Z,94.60
2018-08-31T11:44:22.641Z,94.20
2018-08-31T11:50:27.488Z,79.60
2018-08-31T11:56:32.404Z,77.60
2018-08-31T12:02:37.346Z,67.50
2018-08-31T12:08:43.014Z,61.50
2018-08-31T12:14:47.858Z,62.50
2018-08-31T12:20:53.187Z,62.60
2018-08-31T12:26:58.306Z,70.10
2018-08-31T12:33:03.060Z,74.60
2018-08-31T12:39:11.801Z,75.00
2018-08-31T12:45:17.240Z,71.80
2018-08-31T12:51:22.061Z,73.10
2018-08-31T12:57:27.268Z,72.00
2018-08-31T13:03:32.077Z,65.30
2018-08-31T13:09:36.836Z,64.60
2018-08-31T13:15:43.184Z,66.80
2018-08-31T13:21:48.463Z,64.00
2018-08-31T13:27:53.682Z,59.20
2018-08-31T13:33:58.433Z,60.50
2018-08-31T13:40:03.351Z,59.20
2018-08-31T13:46:08.581Z,58.90
2018-08-31T13:52:13.914Z,55.70
2018-08-31T13:58:18.696Z,50.20
2018-08-31T14:04:23.417Z,44.80
2018-08-31T14:10:28.167Z,47.90
2018-08-31T14:16:35.829Z,46.30
2018-08-31T14:22:42.935Z,45.40
2018-08-31T14:28:47.814Z,49.60
2018-08-31T14:34:52.678Z,52.70
2018-08-31T14:40:57.447Z,57.20
2018-08-31T14:47:09.329Z,59.30
2018-08-31T14:53:15.193Z,64.10
2018-08-31T14:59:20.217Z,66.60
2018-08-31T15:05:25.639Z,67.80
2018-08-31T15:11:30.531Z,65.40
2018-08-31T15:17:35.838Z,61.10
2018-08-31T15:23:42.718Z,61.90
2018-08-31T15:29:47.470Z,60.50
2018-08-31T15:35:52.628Z,59.60
2018-08-31T15:41:57.898Z,60.40
2018-08-31T15:48:02.851Z,60.40
2018-08-31T15:54:07.629Z,63.10
2018-08-31T16:00:14.780Z,63.20
2018-08-31T16:06:19.612Z,63.50
2018-08-31T16:12:24.358Z,64.20
2018-08-31T16:18:29.239Z,66.00
2018-08-31T16:24:34.224Z,68.30
2018-08-31T16:30:39.081Z,68.40
2018-08-31T16:36:43.940Z,70.40
2018-08-31T16:42:49.565Z,68.80
2018-08-31T16:48:54.383Z,70.10
2018-08-31T16:54:59.617Z,71.70
2018-08-31T17:01:04.475Z,73.50
2018-08-31T17:07:09.444Z,74.10
2018-08-31T17:13:15.198Z,73.90
2018-08-31T17:19:20.434Z,74.00
2018-08-31T17:25:26.059Z,73.90
2018-08-31T17:31:35.923Z,76.40
2018-08-31T17:37:41.404Z,76.80
2018-08-31T17:43:46.501Z,77.80
2018-08-31T17:49:51.588Z,78.50
2018-08-31T17:55:56.562Z,80.30
2018-08-31T18:02:01.317Z,81.90
2018-08-31T18:08:06.154Z,80.80
2018-08-31T18:14:12.001Z,83.30
2018-08-31T18:20:16.779Z,84.50
2018-08-31T18:26:21.806Z,87.30
2018-08-31T18:32:26.547Z,90.00
2018-08-31T18:38:31.409Z,90.60
2018-08-31T18:44:36.387Z,91.90
2018-08-31T18:50:41.786Z,92.70
2018-08-31T18:56:47.173Z,93.20
2018-08-31T19:02:51.925Z,93.60
2018-08-31T19:08:57.398Z,94.10
2018-08-31T19:15:02.473Z,94.70
2018-08-31T19:21:07.178Z,95.10
2018-08-31T19:27:14.180Z,95.90
2018-08-31T19:33:19.328Z,96.70
2018-08-31T19:39:24.192Z,97.30
2018-08-31T19:45:29.323Z,98.50
2018-08-31T19:51:34.080Z,98.90
2018-08-31T19:57:38.960Z,99.60
2018-08-31T20:03:44.640Z,99.90
2018-08-31T20:09:49.666Z,99.90
2018-08-31T20:15:54.399Z,99.90
2018-08-31T20:21:59.136Z,99.90
2018-08-31T20:28:04.252Z,99.90
2018-08-31T20:34:09.906Z,99.90
2018-08-31T20:40:15.618Z,99.90
2018-08-31T20:46:20.524Z,99.90
2018-08-31T20:52:25.482Z,99.90
2018-08-31T20:58:30.319Z,99.90
2018-08-31T21:04:35.270Z,99.90
2018-08-31T21:10:40.783Z,99.90
2018-08-31T21:16:46.376Z,99.90
2018-08-31T21:22:51.251Z,99.90
2018-08-31T21:28:56.054Z,99.90
2018-08-31T21:35:01.188Z,99.90
2018-08-31T21:41:06.277Z,99.90
2018-08-31T21:47:12.398Z,99.90
2018-08-31T21:53:17.150Z,99.90
2018-08-31T21:59:22.031Z,99.90
2018-08-31T22:05:26.911Z,99.90
2018-08-31T22:11:31.556Z,99.90
2018-08-31T22:17:36.461Z,99.90
2018-08-31T22:23:42.553Z,99.90
2018-08-31T22:29:47.852Z,99.90
2018-08-31T22:35:52.972Z,99.90
2018-08-31T22:41:57.898Z,99.90
2018-08-31T22:48:02.630Z,99.90
2018-08-31T22:54:07.583Z,99.90
2018-08-31T23:00:12.863Z,99.90
2018-08-31T23:06:17.730Z,99.90
2018-08-31T23:12:22.486Z,99.90
2018-08-31T23:18:27.194Z,99.90
2018-08-31T23:24:31.900Z,99.90
2018-08-31T23:30:36.705Z,99.90
2018-08-31T23:36:42.572Z,99.90
2018-08-31T23:42:47.428Z,99.90
2018-08-31T23:48:52.159Z,99.90
2018-08-31T23:54:56.876Z,99.90
